sensor_id;sensor_type;location;lat;lon;timestamp;pressure;altitude;pressure_sealevel;temperature;humidity
55466;BME280;41329;41.594;23.810;2023-04-06T00:02:11;94844.09;;;5.26;63.16
55466;BME280;41329;41.594;23.810;2023-04-06T00:04:36;94855.38;;;5.37;63.05
55466;BME280;41329;41.594;23.810;2023-04-06T00:07:02;94856.25;;;5.41;63.08
55466;BME280;41329;41.594;23.810;2023-04-06T00:09:27;94836.31;;;5.28;62.99
55466;BME280;41329;41.594;23.810;2023-04-06T00:11:52;94852.28;;;5.38;63.21
55466;BME280;41329;41.594;23.810;2023-04-06T00:14:18;94850.88;;;5.44;63.32
55466;BME280;41329;41.594;23.810;2023-04-06T00:16:43;94843.25;;;5.38;63.03
55466;BME280;41329;41.594;23.810;2023-04-06T00:19:09;94846.69;;;5.35;63.07
55466;BME280;41329;41.594;23.810;2023-04-06T00:21:35;94840.22;;;5.27;63.46
55466;BME280;41329;41.594;23.810;2023-04-06T00:24:00;94841.63;;;5.21;63.80
55466;BME280;41329;41.594;23.810;2023-04-06T00:26:26;94832.38;;;5.14;63.72
55466;BME280;41329;41.594;23.810;2023-04-06T00:28:52;94836.56;;;5.23;63.52
55466;BME280;41329;41.594;23.810;2023-04-06T00:31:17;94838.88;;;5.21;63.36
55466;BME280;41329;41.594;23.810;2023-04-06T00:33:43;94834.44;;;5.17;63.35
55466;BME280;41329;41.594;23.810;2023-04-06T00:36:08;94819.72;;;5.09;63.22
55466;BME280;41329;41.594;23.810;2023-04-06T00:38:34;94836.81;;;5.18;63.09
55466;BME280;41329;41.594;23.810;2023-04-06T00:41:00;94828.38;;;5.11;63.37
55466;BME280;41329;41.594;23.810;2023-04-06T00:43:25;94807.22;;;4.96;63.32
55466;BME280;41329;41.594;23.810;2023-04-06T00:45:51;94821.66;;;5.09;63.29
55466;BME280;41329;41.594;23.810;2023-04-06T00:48:16;94821.56;;;5.05;63.17
55466;BME280;41329;41.594;23.810;2023-04-06T00:50:42;94821.66;;;5.09;62.94
55466;BME280;41329;41.594;23.810;2023-04-06T00:53:07;94803.00;;;4.99;63.05
55466;BME280;41329;41.594;23.810;2023-04-06T00:55:33;94817.34;;;5.08;62.92
55466;BME280;41329;41.594;23.810;2023-04-06T00:58:01;94814.59;;;5.08;62.55
55466;BME280;41329;41.594;23.810;2023-04-06T01:00:27;94804.31;;;5.05;62.54
55466;BME280;41329;41.594;23.810;2023-04-06T01:02:52;94809.09;;;5.08;62.56
55466;BME280;41329;41.594;23.810;2023-04-06T01:05:18;94802.63;;;5.00;62.70
55466;BME280;41329;41.594;23.810;2023-04-06T01:07:44;94790.53;;;5.01;62.15
55466;BME280;41329;41.594;23.810;2023-04-06T01:10:09;94803.63;;;5.08;62.16
55466;BME280;41329;41.594;23.810;2023-04-06T03:30:27;94757.63;;;3.83;64.31
55466;BME280;41329;41.594;23.810;2023-04-06T03:32:53;94758.09;;;3.85;64.40
55466;BME280;41329;41.594;23.810;2023-04-06T03:35:18;94765.03;;;3.82;64.73
55466;BME280;41329;41.594;23.810;2023-04-06T03:37:44;94763.78;;;3.68;64.42
55466;BME280;41329;41.594;23.810;2023-04-06T03:40:10;94758.53;;;3.63;64.27
55466;BME280;41329;41.594;23.810;2023-04-06T03:42:35;94730.63;;;3.45;64.17
55466;BME280;41329;41.594;23.810;2023-04-06T03:45:00;94749.53;;;3.50;64.77
55466;BME280;41329;41.594;23.810;2023-04-06T03:47:26;94731.41;;;3.34;64.89
55466;BME280;41329;41.594;23.810;2023-04-06T03:49:51;94759.31;;;3.51;65.13
55466;BME280;41329;41.594;23.810;2023-04-06T03:52:17;94732.44;;;3.41;65.05
55466;BME280;41329;41.594;23.810;2023-04-06T03:54:43;94730.16;;;3.43;65.00
55466;BME280;41329;41.594;23.810;2023-04-06T03:57:08;94751.47;;;3.50;65.51
55466;BME280;41329;41.594;23.810;2023-04-06T03:59:34;94740.97;;;3.40;65.57
55466;BME280;41329;41.594;23.810;2023-04-06T04:01:59;94749.19;;;3.52;65.67
55466;BME280;41329;41.594;23.810;2023-04-06T04:04:25;94742.56;;;3.41;65.98
55466;BME280;41329;41.594;23.810;2023-04-06T04:06:50;94759.81;;;3.53;66.16
55466;BME280;41329;41.594;23.810;2023-04-06T04:09:16;94753.28;;;3.58;66.18
55466;BME280;41329;41.594;23.810;2023-04-06T04:11:41;94751.22;;;3.55;65.83
55466;BME280;41329;41.594;23.810;2023-04-06T04:14:07;94748.38;;;3.51;65.76
55466;BME280;41329;41.594;23.810;2023-04-06T04:16:32;94731.28;;;3.42;66.21
55466;BME280;41329;41.594;23.810;2023-04-06T04:18:58;94748.72;;;3.50;65.50
55466;BME280;41329;41.594;23.810;2023-04-06T04:21:24;94751.13;;;3.51;65.33
55466;BME280;41329;41.594;23.810;2023-04-06T04:23:51;94751.94;;;3.52;65.64
55466;BME280;41329;41.594;23.810;2023-04-06T04:26:17;94753.41;;;3.49;65.48
55466;BME280;41329;41.594;23.810;2023-04-06T04:28:43;94734.25;;;3.25;65.63
55466;BME280;41329;41.594;23.810;2023-04-06T04:31:08;94748.59;;;3.34;65.64
55466;BME280;41329;41.594;23.810;2023-04-06T04:33:34;94754.63;;;3.28;65.75
55466;BME280;41329;41.594;23.810;2023-04-06T04:36:00;94745.28;;;3.29;65.79
55466;BME280;41329;41.594;23.810;2023-04-06T04:38:25;94756.81;;;3.34;66.40
55466;BME280;41329;41.594;23.810;2023-04-06T04:40:50;94712.25;;;3.10;66.84
55466;BME280;41329;41.594;23.810;2023-04-06T04:43:16;94756.81;;;3.34;66.56
55466;BME280;41329;41.594;23.810;2023-04-06T04:45:41;94767.63;;;3.31;66.43
55466;BME280;41329;41.594;23.810;2023-04-06T04:48:07;94741.09;;;3.19;66.51
55466;BME280;41329;41.594;23.810;2023-04-06T04:50:33;94757.94;;;3.21;66.80
55466;BME280;41329;41.594;23.810;2023-04-06T04:52:59;94757.88;;;2.97;67.96
55466;BME280;41329;41.594;23.810;2023-04-06T04:55:25;94742.59;;;2.52;70.01
55466;BME280;41329;41.594;23.810;2023-04-06T04:57:51;94733.81;;;2.46;70.53
55466;BME280;41329;41.594;23.810;2023-04-06T05:00:16;94745.88;;;2.45;71.05
55466;BME280;41329;41.594;23.810;2023-04-06T05:02:42;94730.41;;;2.29;71.67
55466;BME280;41329;41.594;23.810;2023-04-06T05:05:08;94754.59;;;2.18;72.80
55466;BME280;41329;41.594;23.810;2023-04-06T05:07:34;94742.09;;;2.17;73.22
55466;BME280;41329;41.594;23.810;2023-04-06T05:09:59;94749.47;;;1.96;74.18
55466;BME280;41329;41.594;23.810;2023-04-06T05:12:25;94747.81;;;2.04;74.45
55466;BME280;41329;41.594;23.810;2023-04-06T05:14:53;94724.91;;;1.96;74.82
55466;BME280;41329;41.594;23.810;2023-04-06T05:17:18;94730.63;;;2.24;74.73
55466;BME280;41329;41.594;23.810;2023-04-06T05:19:44;94723.31;;;2.16;74.27
55466;BME280;41329;41.594;23.810;2023-04-06T05:22:09;94689.19;;;2.10;74.10
55466;BME280;41329;41.594;23.810;2023-04-06T05:24:35;94705.19;;;2.32;74.21
55466;BME280;41329;41.594;23.810;2023-04-06T05:27:00;94758.31;;;2.55;73.73
55466;BME280;41329;41.594;23.810;2023-04-06T05:29:26;94759.06;;;2.76;73.84
55466;BME280;41329;41.594;23.810;2023-04-06T05:31:51;94754.03;;;2.98;73.48
55466;BME280;41329;41.594;23.810;2023-04-06T05:34:17;94736.72;;;2.94;72.71
55466;BME280;41329;41.594;23.810;2023-04-06T05:36:42;94748.00;;;3.17;72.66
55466;BME280;41329;41.594;23.810;2023-04-06T05:39:08;94747.31;;;3.08;72.44
55466;BME280;41329;41.594;23.810;2023-04-06T05:41:33;94744.72;;;3.23;72.44
55466;BME280;41329;41.594;23.810;2023-04-06T05:43:59;94745.97;;;3.38;72.23
55466;BME280;41329;41.594;23.810;2023-04-06T05:46:24;94728.56;;;3.30;72.26
55466;BME280;41329;41.594;23.810;2023-04-06T05:48:50;94736.31;;;3.52;71.55
55466;BME280;41329;41.594;23.810;2023-04-06T05:51:15;94730.06;;;3.52;71.95
55466;BME280;41329;41.594;23.810;2023-04-06T05:53:40;94719.44;;;3.38;71.80
55466;BME280;41329;41.594;23.810;2023-04-06T05:56:06;94728.44;;;3.63;72.00
55466;BME280;41329;41.594;23.810;2023-04-06T05:58:32;94721.50;;;3.41;72.50
55466;BME280;41329;41.594;23.810;2023-04-06T06:00:58;94739.19;;;3.68;72.87
55466;BME280;41329;41.594;23.810;2023-04-06T06:03:24;94726.50;;;3.87;72.44
55466;BME280;41329;41.594;23.810;2023-04-06T06:05:49;94736.28;;;3.88;72.19
55466;BME280;41329;41.594;23.810;2023-04-06T06:08:15;94733.06;;;3.98;71.41
55466;BME280;41329;41.594;23.810;2023-04-06T06:10:40;94734.06;;;4.18;71.37
55466;BME280;41329;41.594;23.810;2023-04-06T06:13:06;94728.78;;;4.37;71.03
55466;BME280;41329;41.594;23.810;2023-04-06T06:15:31;94715.28;;;4.44;70.01
55466;BME280;41329;41.594;23.810;2023-04-06T06:17:57;94702.28;;;4.41;69.72
55466;BME280;41329;41.594;23.810;2023-04-06T06:20:22;94714.94;;;4.73;70.07
55466;BME280;41329;41.594;23.810;2023-04-06T06:22:47;94715.59;;;4.97;69.91
55466;BME280;41329;41.594;23.810;2023-04-06T06:25:13;94701.03;;;5.09;68.95
55466;BME280;41329;41.594;23.810;2023-04-06T06:27:39;94709.25;;;5.24;67.86
55466;BME280;41329;41.594;23.810;2023-04-06T06:30:05;94709.78;;;5.45;66.88
55466;BME280;41329;41.594;23.810;2023-04-06T06:32:30;94703.88;;;5.59;65.96
55466;BME280;41329;41.594;23.810;2023-04-06T06:34:56;94705.91;;;5.62;64.33
55466;BME280;41329;41.594;23.810;2023-04-06T06:37:21;94708.44;;;5.70;64.47
55466;BME280;41329;41.594;23.810;2023-04-06T06:39:46;94706.81;;;5.81;64.08
55466;BME280;41329;41.594;23.810;2023-04-06T06:42:12;94698.34;;;5.90;63.82
55466;BME280;41329;41.594;23.810;2023-04-06T06:44:37;94708.63;;;5.93;62.11
55466;BME280;41329;41.594;23.810;2023-04-06T06:47:03;94704.72;;;5.94;62.55
55466;BME280;41329;41.594;23.810;2023-04-06T06:49:28;94721.19;;;5.94;63.60
55466;BME280;41329;41.594;23.810;2023-04-06T06:51:54;94709.75;;;6.07;63.08
55466;BME280;41329;41.594;23.810;2023-04-06T06:54:20;94708.75;;;6.15;62.34
55466;BME280;41329;41.594;23.810;2023-04-06T06:56:45;94684.03;;;6.15;63.24
55466;BME280;41329;41.594;23.810;2023-04-06T06:59:11;94711.91;;;6.52;63.78
55466;BME280;41329;41.594;23.810;2023-04-06T07:01:36;94706.28;;;6.64;62.87
55466;BME280;41329;41.594;23.810;2023-04-06T07:04:02;94703.94;;;6.85;62.71
55466;BME280;41329;41.594;23.810;2023-04-06T07:06:28;94704.88;;;6.93;61.61
55466;BME280;41329;41.594;23.810;2023-04-06T07:08:54;94693.00;;;6.89;60.83
55466;BME280;41329;41.594;23.810;2023-04-06T07:11:20;94689.69;;;6.99;60.13
55466;BME280;41329;41.594;23.810;2023-04-06T07:13:46;94707.19;;;7.32;59.40
55466;BME280;41329;41.594;23.810;2023-04-06T07:16:11;94711.66;;;7.40;59.38
55466;BME280;41329;41.594;23.810;2023-04-06T07:18:37;94694.19;;;7.29;58.15
55466;BME280;41329;41.594;23.810;2023-04-06T07:21:02;94694.41;;;7.43;58.20
55466;BME280;41329;41.594;23.810;2023-04-06T07:23:28;94686.78;;;7.33;55.05
55466;BME280;41329;41.594;23.810;2023-04-06T07:25:53;94685.03;;;7.48;56.63
55466;BME280;41329;41.594;23.810;2023-04-06T07:28:19;94709.41;;;7.46;56.94
55466;BME280;41329;41.594;23.810;2023-04-06T07:30:45;94683.94;;;7.52;57.43
55466;BME280;41329;41.594;23.810;2023-04-06T07:33:11;94711.28;;;7.87;57.38
55466;BME280;41329;41.594;23.810;2023-04-06T07:35:37;94705.84;;;7.94;56.03
55466;BME280;41329;41.594;23.810;2023-04-06T07:38:03;94690.56;;;7.96;53.42
55466;BME280;41329;41.594;23.810;2023-04-06T07:40:28;94692.31;;;8.08;53.09
55466;BME280;41329;41.594;23.810;2023-04-06T07:42:54;94696.09;;;8.22;54.74
55466;BME280;41329;41.594;23.810;2023-04-06T07:45:19;94691.38;;;8.49;54.43
55466;BME280;41329;41.594;23.810;2023-04-06T07:47:45;94686.06;;;8.66;53.31
55466;BME280;41329;41.594;23.810;2023-04-06T07:50:11;94689.72;;;8.74;54.35
55466;BME280;41329;41.594;23.810;2023-04-06T07:52:37;94661.63;;;8.65;52.99
55466;BME280;41329;41.594;23.810;2023-04-06T07:55:02;94676.75;;;8.78;53.44
55466;BME280;41329;41.594;23.810;2023-04-06T07:57:28;94670.72;;;8.69;52.76
55466;BME280;41329;41.594;23.810;2023-04-06T07:59:56;94667.00;;;8.87;54.14
55466;BME280;41329;41.594;23.810;2023-04-06T08:02:22;94658.50;;;9.03;52.42
55466;BME280;41329;41.594;23.810;2023-04-06T08:04:47;94647.91;;;9.05;51.51
55466;BME280;41329;41.594;23.810;2023-04-06T08:07:13;94651.72;;;9.33;53.81
55466;BME280;41329;41.594;23.810;2023-04-06T08:09:38;94641.53;;;9.41;50.34
55466;BME280;41329;41.594;23.810;2023-04-06T08:12:04;94644.63;;;9.32;51.26
55466;BME280;41329;41.594;23.810;2023-04-06T08:14:29;94651.97;;;9.58;51.24
55466;BME280;41329;41.594;23.810;2023-04-06T08:16:55;94654.09;;;9.78;51.48
55466;BME280;41329;41.594;23.810;2023-04-06T08:19:20;94629.38;;;9.96;49.55
55466;BME280;41329;41.594;23.810;2023-04-06T08:21:46;94629.00;;;10.01;47.91
55466;BME280;41329;41.594;23.810;2023-04-06T08:24:13;94638.59;;;10.14;48.24
55466;BME280;41329;41.594;23.810;2023-04-06T08:26:38;94630.38;;;10.24;47.78
55466;BME280;41329;41.594;23.810;2023-04-06T08:29:04;94629.19;;;10.29;48.37
55466;BME280;41329;41.594;23.810;2023-04-06T08:31:33;94614.66;;;10.39;49.34
55466;BME280;41329;41.594;23.810;2023-04-06T08:33:59;94629.34;;;10.53;48.52
55466;BME280;41329;41.594;23.810;2023-04-06T08:36:25;94571.50;;;10.20;48.20
55466;BME280;41329;41.594;23.810;2023-04-06T08:38:50;94617.88;;;10.55;48.19
55466;BME280;41329;41.594;23.810;2023-04-06T08:41:18;94619.84;;;10.54;49.05
55466;BME280;41329;41.594;23.810;2023-04-06T08:43:48;94600.88;;;10.46;48.41
55466;BME280;41329;41.594;23.810;2023-04-06T08:46:14;94609.56;;;10.51;47.76
55466;BME280;41329;41.594;23.810;2023-04-06T08:48:41;94605.69;;;10.66;47.50
55466;BME280;41329;41.594;23.810;2023-04-06T08:51:08;94583.97;;;10.79;48.53
55466;BME280;41329;41.594;23.810;2023-04-06T08:53:35;94604.19;;;10.93;47.28
55466;BME280;41329;41.594;23.810;2023-04-06T08:56:01;94593.91;;;10.97;47.06
55466;BME280;41329;41.594;23.810;2023-04-06T08:58:31;94587.19;;;10.88;47.08
55466;BME280;41329;41.594;23.810;2023-04-06T09:00:58;94594.69;;;10.91;46.15
55466;BME280;41329;41.594;23.810;2023-04-06T09:03:25;94593.91;;;10.94;48.55
55466;BME280;41329;41.594;23.810;2023-04-06T09:05:51;94582.03;;;10.86;44.90
55466;BME280;41329;41.594;23.810;2023-04-06T09:08:17;94590.38;;;11.04;46.45
55466;BME280;41329;41.594;23.810;2023-04-06T09:10:42;94581.28;;;11.21;46.85
55466;BME280;41329;41.594;23.810;2023-04-06T09:13:08;94586.06;;;11.38;46.19
55466;BME280;41329;41.594;23.810;2023-04-06T09:15:34;94586.06;;;11.55;47.03
55466;BME280;41329;41.594;23.810;2023-04-06T09:18:00;94586.84;;;11.52;45.42
55466;BME280;41329;41.594;23.810;2023-04-06T09:20:26;94574.22;;;11.62;44.96
55466;BME280;41329;41.594;23.810;2023-04-06T09:22:54;94556.84;;;11.61;44.81
55466;BME280;41329;41.594;23.810;2023-04-06T09:25:23;94579.38;;;11.67;43.03
55466;BME280;41329;41.594;23.810;2023-04-06T09:28:10;94574.59;;;11.92;45.68
55466;BME280;41329;41.594;23.810;2023-04-06T09:30:36;94560.75;;;11.92;45.93
55466;BME280;41329;41.594;23.810;2023-04-06T09:33:02;94578.94;;;12.00;44.48
55466;BME280;41329;41.594;23.810;2023-04-06T09:35:27;94556.75;;;12.10;46.71
55466;BME280;41329;41.594;23.810;2023-04-06T09:37:55;94553.22;;;11.96;44.60
55466;BME280;41329;41.594;23.810;2023-04-06T09:40:21;94568.25;;;11.95;44.47
55466;BME280;41329;41.594;23.810;2023-04-06T09:42:48;94559.53;;;12.00;45.28
55466;BME280;41329;41.594;23.810;2023-04-06T09:45:18;94557.53;;;12.07;44.97
55466;BME280;41329;41.594;23.810;2023-04-06T09:47:44;94559.06;;;12.33;44.61
55466;BME280;41329;41.594;23.810;2023-04-06T09:50:12;94560.28;;;12.25;42.70
55466;BME280;41329;41.594;23.810;2023-04-06T09:52:45;94544.06;;;12.16;42.95
55466;BME280;41329;41.594;23.810;2023-04-06T09:55:17;94547.94;;;12.40;42.47
55466;BME280;41329;41.594;23.810;2023-04-06T09:57:52;94556.13;;;12.75;40.09
55466;BME280;41329;41.594;23.810;2023-04-06T10:00:21;94535.88;;;12.78;40.36
55466;BME280;41329;41.594;23.810;2023-04-06T10:08:17;94503.78;;;12.74;38.71
55466;BME280;41329;41.594;23.810;2023-04-06T10:10:44;94534.94;;;13.09;40.18
55466;BME280;41329;41.594;23.810;2023-04-06T10:13:11;94536.81;;;13.23;40.11
55466;BME280;41329;41.594;23.810;2023-04-06T10:15:38;94527.72;;;13.19;36.93
55466;BME280;41329;41.594;23.810;2023-04-06T10:18:03;94526.44;;;13.30;37.38
55466;BME280;41329;41.594;23.810;2023-04-06T10:20:53;94518.25;;;13.09;38.59
55466;BME280;41329;41.594;23.810;2023-04-06T10:23:36;94537.13;;;13.35;40.67
55466;BME280;41329;41.594;23.810;2023-04-06T10:26:03;94524.66;;;13.57;39.13
55466;BME280;41329;41.594;23.810;2023-04-06T10:28:33;94527.34;;;13.68;37.62
55466;BME280;41329;41.594;23.810;2023-04-06T10:31:03;94529.31;;;13.67;39.12
55466;BME280;41329;41.594;23.810;2023-04-06T10:33:30;94499.25;;;13.55;36.82
55466;BME280;41329;41.594;23.810;2023-04-06T10:35:55;94518.38;;;13.46;36.95
55466;BME280;41329;41.594;23.810;2023-04-06T10:38:21;94502.44;;;13.54;38.55
55466;BME280;41329;41.594;23.810;2023-04-06T10:41:04;94514.56;;;13.74;38.45
55466;BME280;41329;41.594;23.810;2023-04-06T10:43:33;94506.09;;;13.88;37.44
55466;BME280;41329;41.594;23.810;2023-04-06T10:46:00;94497.44;;;13.79;36.74
55466;BME280;41329;41.594;23.810;2023-04-06T10:48:39;94509.63;;;13.92;38.65
55466;BME280;41329;41.594;23.810;2023-04-06T10:51:13;94492.97;;;13.88;36.48
55466;BME280;41329;41.594;23.810;2023-04-06T10:53:44;94493.50;;;13.76;37.70
55466;BME280;41329;41.594;23.810;2023-04-06T10:56:11;94489.19;;;13.72;36.27
55466;BME280;41329;41.594;23.810;2023-04-06T10:58:37;94503.09;;;13.68;35.28
55466;BME280;41329;41.594;23.810;2023-04-06T11:01:03;94495.31;;;13.93;40.19
55466;BME280;41329;41.594;23.810;2023-04-06T11:03:29;94497.84;;;14.14;38.03
55466;BME280;41329;41.594;23.810;2023-04-06T11:05:55;94493.16;;;14.45;40.32
55466;BME280;41329;41.594;23.810;2023-04-06T11:08:29;94491.94;;;14.79;37.64
55466;BME280;41329;41.594;23.810;2023-04-06T11:11:09;94478.34;;;14.81;37.45
55466;BME280;41329;41.594;23.810;2023-04-06T11:13:41;94488.47;;;14.68;34.84
55466;BME280;41329;41.594;23.810;2023-04-06T11:16:16;94484.88;;;14.71;33.73
55466;BME280;41329;41.594;23.810;2023-04-06T11:18:51;94486.91;;;14.37;35.73
55466;BME280;41329;41.594;23.810;2023-04-06T11:21:30;94465.34;;;14.45;36.19
55466;BME280;41329;41.594;23.810;2023-04-06T11:24:21;94480.69;;;14.56;36.10
55466;BME280;41329;41.594;23.810;2023-04-06T11:26:48;94478.09;;;14.72;35.40
55466;BME280;41329;41.594;23.810;2023-04-06T11:29:17;94471.91;;;14.88;36.24
55466;BME280;41329;41.594;23.810;2023-04-06T11:31:51;94455.81;;;14.72;34.97
55466;BME280;41329;41.594;23.810;2023-04-06T11:34:18;94463.25;;;14.52;33.63
55466;BME280;41329;41.594;23.810;2023-04-06T11:36:45;94459.66;;;14.18;33.68
55466;BME280;41329;41.594;23.810;2023-04-06T11:39:19;94459.22;;;14.23;34.11
55466;BME280;41329;41.594;23.810;2023-04-06T11:41:49;94461.56;;;14.28;36.09
55466;BME280;41329;41.594;23.810;2023-04-06T11:44:26;94465.78;;;14.70;38.48
55466;BME280;41329;41.594;23.810;2023-04-06T11:46:53;94462.88;;;15.07;36.18
55466;BME280;41329;41.594;23.810;2023-04-06T11:49:18;94454.19;;;15.01;33.28
55466;BME280;41329;41.594;23.810;2023-04-06T11:51:45;94434.91;;;14.61;33.68
55466;BME280;41329;41.594;23.810;2023-04-06T11:54:11;94459.53;;;14.62;36.69
55466;BME280;41329;41.594;23.810;2023-04-06T11:56:38;94450.50;;;14.81;35.38
55466;BME280;41329;41.594;23.810;2023-04-06T11:59:03;94449.88;;;14.70;35.29
55466;BME280;41329;41.594;23.810;2023-04-06T12:01:29;94449.88;;;14.70;35.83
55466;BME280;41329;41.594;23.810;2023-04-06T12:03:55;94444.63;;;14.76;34.92
55466;BME280;41329;41.594;23.810;2023-04-06T12:06:21;94445.66;;;14.59;34.58
55466;BME280;41329;41.594;23.810;2023-04-06T12:08:46;94432.75;;;14.45;34.97
55466;BME280;41329;41.594;23.810;2023-04-06T12:11:12;94435.31;;;14.59;35.80
55466;BME280;41329;41.594;23.810;2023-04-06T12:13:37;94437.53;;;14.71;34.45
55466;BME280;41329;41.594;23.810;2023-04-06T12:16:03;94410.06;;;14.73;35.78
55466;BME280;41329;41.594;23.810;2023-04-06T12:18:30;94426.66;;;15.07;33.70
55466;BME280;41329;41.594;23.810;2023-04-06T12:20:55;94425.38;;;15.11;35.61
55466;BME280;41329;41.594;23.810;2023-04-06T12:23:21;94436.00;;;14.93;34.96
55466;BME280;41329;41.594;23.810;2023-04-06T12:25:46;94434.53;;;14.85;36.53
55466;BME280;41329;41.594;23.810;2023-04-06T12:28:12;94446.25;;;14.73;37.36
55466;BME280;41329;41.594;23.810;2023-04-06T12:30:38;94442.50;;;14.57;36.26
55466;BME280;41329;41.594;23.810;2023-04-06T12:33:03;94428.75;;;14.43;35.84
55466;BME280;41329;41.594;23.810;2023-04-06T12:35:33;94443.03;;;14.11;37.03
55466;BME280;41329;41.594;23.810;2023-04-06T12:37:59;94425.06;;;14.23;37.56
55466;BME280;41329;41.594;23.810;2023-04-06T12:40:24;94416.63;;;13.96;38.06
55466;BME280;41329;41.594;23.810;2023-04-06T12:42:50;94413.44;;;13.98;36.33
55466;BME280;41329;41.594;23.810;2023-04-06T12:45:15;94411.28;;;14.12;37.43
55466;BME280;41329;41.594;23.810;2023-04-06T12:47:41;94433.09;;;14.14;38.44
55466;BME280;41329;41.594;23.810;2023-04-06T12:50:07;94411.69;;;14.11;37.23
55466;BME280;41329;41.594;23.810;2023-04-06T12:52:32;94425.34;;;14.32;36.65
55466;BME280;41329;41.594;23.810;2023-04-06T12:55:03;94429.75;;;14.29;36.11
55466;BME280;41329;41.594;23.810;2023-04-06T12:57:30;94400.38;;;14.25;37.13
55466;BME280;41329;41.594;23.810;2023-04-06T12:59:56;94414.91;;;14.39;36.13
55466;BME280;41329;41.594;23.810;2023-04-06T13:02:22;94409.00;;;14.34;35.33
55466;BME280;41329;41.594;23.810;2023-04-06T13:04:48;94415.59;;;14.47;35.77
55466;BME280;41329;41.594;23.810;2023-04-06T13:07:14;94401.75;;;14.43;35.81
55466;BME280;41329;41.594;23.810;2023-04-06T13:09:40;94401.91;;;14.59;35.60
55466;BME280;41329;41.594;23.810;2023-04-06T13:12:05;94412.81;;;14.77;35.40
55466;BME280;41329;41.594;23.810;2023-04-06T13:14:31;94402.84;;;14.76;34.60
55466;BME280;41329;41.594;23.810;2023-04-06T13:16:57;94416.59;;;14.90;36.79
55466;BME280;41329;41.594;23.810;2023-04-06T13:19:22;94401.53;;;14.84;34.83
55466;BME280;41329;41.594;23.810;2023-04-06T13:21:48;94408.31;;;14.83;33.66
55466;BME280;41329;41.594;23.810;2023-04-06T13:24:14;94410.94;;;14.93;34.47
55466;BME280;41329;41.594;23.810;2023-04-06T13:26:39;94407.53;;;14.56;34.15
55466;BME280;41329;41.594;23.810;2023-04-06T13:29:05;94411.28;;;14.42;35.29
55466;BME280;41329;41.594;23.810;2023-04-06T13:31:30;94402.75;;;14.56;35.57
55466;BME280;41329;41.594;23.810;2023-04-06T13:33:56;94378.75;;;14.66;35.93
55466;BME280;41329;41.594;23.810;2023-04-06T13:36:22;94398.72;;;14.87;33.70
55466;BME280;41329;41.594;23.810;2023-04-06T13:38:47;94402.84;;;14.76;33.49
55466;BME280;41329;41.594;23.810;2023-04-06T13:41:23;94396.53;;;14.98;33.59
55466;BME280;41329;41.594;23.810;2023-04-06T13:43:50;94392.75;;;15.12;34.29
55466;BME280;41329;41.594;23.810;2023-04-06T13:46:15;94388.38;;;15.37;34.28
55466;BME280;41329;41.594;23.810;2023-04-06T13:48:42;94377.25;;;15.11;33.15
55466;BME280;41329;41.594;23.810;2023-04-06T13:51:11;94396.28;;;14.63;33.67
55466;BME280;41329;41.594;23.810;2023-04-06T13:53:37;94391.59;;;14.56;32.59
55466;BME280;41329;41.594;23.810;2023-04-06T13:56:03;94376.06;;;14.59;34.02
55466;BME280;41329;41.594;23.810;2023-04-06T13:58:30;94380.53;;;14.79;33.69
55466;BME280;41329;41.594;23.810;2023-04-06T14:01:02;94385.00;;;14.73;32.45
55466;BME280;41329;41.594;23.810;2023-04-06T14:03:27;94387.50;;;14.91;32.05
55466;BME280;41329;41.594;23.810;2023-04-06T14:05:53;94401.28;;;15.01;32.10
55466;BME280;41329;41.594;23.810;2023-04-06T14:08:18;94391.22;;;15.07;32.62
55466;BME280;41329;41.594;23.810;2023-04-06T14:10:43;94408.72;;;15.08;32.84
55466;BME280;41329;41.594;23.810;2023-04-06T14:13:09;94380.31;;;14.93;32.94
55466;BME280;41329;41.594;23.810;2023-04-06T14:15:35;94403.00;;;14.65;33.51
55466;BME280;41329;41.594;23.810;2023-04-06T14:18:01;94383.66;;;14.55;33.74
55466;BME280;41329;41.594;23.810;2023-04-06T14:20:26;94398.91;;;14.73;34.39
55466;BME280;41329;41.594;23.810;2023-04-06T14:22:52;94406.53;;;14.96;34.03
55466;BME280;41329;41.594;23.810;2023-04-06T14:25:19;94382.38;;;14.89;33.54
55466;BME280;41329;41.594;23.810;2023-04-06T14:27:45;94398.56;;;14.98;33.84
55466;BME280;41329;41.594;23.810;2023-04-06T14:30:11;94406.34;;;15.06;32.87
55466;BME280;41329;41.594;23.810;2023-04-06T14:32:36;94394.91;;;14.74;32.65
55466;BME280;41329;41.594;23.810;2023-04-06T14:35:03;94403.56;;;14.83;33.13
55466;BME280;41329;41.594;23.810;2023-04-06T14:37:29;94398.00;;;15.06;33.75
55466;BME280;41329;41.594;23.810;2023-04-06T14:39:55;94382.75;;;14.91;32.82
55466;BME280;41329;41.594;23.810;2023-04-06T14:42:20;94387.09;;;14.92;33.02
55466;BME280;41329;41.594;23.810;2023-04-06T14:44:46;94391.09;;;14.91;31.95
55466;BME280;41329;41.594;23.810;2023-04-06T14:47:11;94401.63;;;15.03;31.86
55466;BME280;41329;41.594;23.810;2023-04-06T14:49:39;94396.00;;;15.07;31.88
55466;BME280;41329;41.594;23.810;2023-04-06T14:52:05;94410.19;;;14.63;32.08
55466;BME280;41329;41.594;23.810;2023-04-06T14:54:31;94412.97;;;14.66;32.13
55466;BME280;41329;41.594;23.810;2023-04-06T14:56:56;94411.69;;;14.71;34.07
55466;BME280;41329;41.594;23.810;2023-04-06T14:59:21;94402.31;;;14.58;32.75
55466;BME280;41329;41.594;23.810;2023-04-06T15:01:47;94421.56;;;14.75;31.60
55466;BME280;41329;41.594;23.810;2023-04-06T15:04:12;94399.63;;;14.51;32.46
55466;BME280;41329;41.594;23.810;2023-04-06T15:06:39;94418.56;;;14.63;31.80
55466;BME280;41329;41.594;23.810;2023-04-06T15:09:04;94426.06;;;14.66;32.39
55466;BME280;41329;41.594;23.810;2023-04-06T15:11:30;94412.91;;;14.70;32.88
55466;BME280;41329;41.594;23.810;2023-04-06T15:13:55;94431.56;;;14.73;33.40
55466;BME280;41329;41.594;23.810;2023-04-06T15:16:20;94417.34;;;14.90;33.67